Time;durP1;ratioP1;P1;durP2;ratioP2;P2;SDS_P1;SDS_P2;PMS_P1;PMS_P2;Temp;Humidity;BMP_temperature;BMP_pressure;BME280_temperature;BME280_humidity;BME280_pressure;Samples;Min_cycle;Max_cycle;Signal;HPM_P1;HPM_P2
2023/04/16 00:02:31;;;;;;;44.90;29.20;;;;;;;9.49;100.00;100336.14;217855;1288;139561;-91
2023/04/16 00:07:32;;;;;;;49.70;30.90;;;;;;;9.50;100.00;100341.73;218613;1289;139636;-90
2023/04/16 00:12:32;;;;;;;46.30;30.80;;;;;;;9.52;100.00;100343.09;217819;1288;139093;-90
2023/04/16 00:17:33;;;;;;;49.50;32.30;;;;;;;9.52;100.00;100346.08;218459;1288;96158;-89
2023/04/16 00:22:33;;;;;;;49.30;31.20;;;;;;;9.54;100.00;100346.27;217835;1288;139288;-89
2023/04/16 00:27:34;;;;;;;45.00;30.00;;;;;;;9.54;100.00;100354.43;218379;1288;139659;-90
2023/04/16 00:32:34;;;;;;;45.60;29.90;;;;;;;9.55;100.00;100355.21;218008;1288;139883;-91
2023/04/16 00:37:35;;;;;;;46.50;28.20;;;;;;;9.55;100.00;100358.98;218476;1288;139460;-91
2023/04/16 00:42:36;;;;;;;42.50;27.70;;;;;;;9.55;100.00;100356.55;217905;1288;139686;-91
2023/04/16 00:47:37;;;;;;;48.90;30.40;;;;;;;9.57;100.00;100360.03;218421;1288;96078;-92
2023/04/16 00:52:39;;;;;;;47.40;28.20;;;;;;;9.59;100.00;100360.69;218080;1288;139061;-91
2023/04/16 00:57:39;;;;;;;44.60;29.60;;;;;;;9.60;100.00;100367.93;218259;1288;139155;-91
2023/04/16 01:02:40;;;;;;;51.30;30.20;;;;;;;9.62;100.00;100369.92;218140;1288;138326;-90
2023/04/16 01:07:41;;;;;;;51.00;31.10;;;;;;;9.63;100.00;100368.77;218327;1288;138965;-91
2023/04/16 01:12:41;;;;;;;49.00;30.40;;;;;;;9.63;100.00;100369.45;217992;1288;138840;-91
2023/04/16 01:17:44;;;;;;;47.00;29.60;;;;;;;9.63;100.00;100364.98;218328;1289;96348;-91
2023/04/16 01:22:45;;;;;;;51.80;31.20;;;;;;;9.62;100.00;100360.66;217914;1289;140103;-91
2023/04/16 01:27:48;;;;;;;51.90;29.80;;;;;;;9.62;100.00;100359.88;218308;1288;139147;-90
2023/04/16 01:32:49;;;;;;;46.60;30.00;;;;;;;9.62;100.00;100363.95;217662;1288;139580;-90
2023/04/16 01:37:50;;;;;;;48.70;30.40;;;;;;;9.61;100.00;100359.94;218380;1288;139527;-90
2023/04/16 01:42:51;;;;;;;47.60;29.10;;;;;;;9.61;100.00;100361.59;217773;1288;139302;-91
2023/04/16 01:47:52;;;;;;;47.00;29.60;;;;;;;9.60;100.00;100364.02;218448;1289;96070;-90
2023/04/16 01:52:53;;;;;;;50.30;29.30;;;;;;;9.58;100.00;100363.67;217617;1288;142824;-90
2023/04/16 01:57:53;;;;;;;43.90;26.60;;;;;;;9.57;100.00;100367.96;218230;1291;139605;-90
2023/04/16 02:02:53;;;;;;;48.00;27.90;;;;;;;9.54;100.00;100368.33;217739;1288;139127;-90
2023/04/16 02:07:54;;;;;;;46.30;28.80;;;;;;;9.52;100.00;100367.20;218167;1288;139096;-90
2023/04/16 02:12:55;;;;;;;50.90;29.60;;;;;;;9.51;100.00;100361.13;217631;1288;139594;-89
2023/04/16 02:17:55;;;;;;;45.90;28.60;;;;;;;9.49;100.00;100364.23;218163;1288;96195;-90
2023/04/16 02:22:56;;;;;;;39.90;25.30;;;;;;;9.47;100.00;100369.23;217676;1289;139715;-89
2023/04/16 02:27:57;;;;;;;45.40;26.50;;;;;;;9.45;100.00;100371.88;218254;1289;138816;-89
2023/04/16 02:32:57;;;;;;;41.00;25.20;;;;;;;9.43;100.00;100374.05;217859;1288;138937;-89
2023/04/16 02:37:58;;;;;;;42.50;24.10;;;;;;;9.40;100.00;100378.94;218235;1289;138977;-90
2023/04/16 02:42:59;;;;;;;43.60;26.60;;;;;;;9.40;100.00;100380.59;217708;1291;139170;-89
2023/04/16 02:47:59;;;;;;;46.40;28.80;;;;;;;9.40;100.00;100380.04;218500;1293;95943;-90
2023/04/16 02:53:00;;;;;;;42.20;26.00;;;;;;;9.40;100.00;100384.35;217982;1288;138651;-90
2023/04/16 02:58:00;;;;;;;48.80;27.70;;;;;;;9.40;100.00;100381.45;218436;1287;139350;-90
2023/04/16 03:03:01;;;;;;;47.30;27.70;;;;;;;9.39;100.00;100382.63;218070;1288;139169;-89
2023/04/16 03:08:05;;;;;;;40.40;25.30;;;;;;;9.36;100.00;100382.18;218332;1288;138950;-90
2023/04/16 03:13:06;;;;;;;44.50;26.80;;;;;;;9.34;100.00;100387.95;217768;1288;139160;-90
2023/04/16 03:18:06;;;;;;;43.00;25.30;;;;;;;9.33;100.00;100385.18;218692;1288;95960;-89
2023/04/16 03:23:07;;;;;;;44.00;25.50;;;;;;;9.32;100.00;100393.11;217757;1288;138957;-89
2023/04/16 03:28:07;;;;;;;43.60;24.70;;;;;;;9.32;100.00;100394.59;218494;1288;139081;-89
2023/04/16 03:33:08;;;;;;;42.20;23.80;;;;;;;9.33;100.00;100395.80;217814;1291;139019;-89
2023/04/16 03:38:09;;;;;;;43.60;24.60;;;;;;;9.35;100.00;100399.43;218346;1288;139538;-89
2023/04/16 03:43:10;;;;;;;43.30;24.30;;;;;;;9.35;100.00;100403.05;218164;1288;139262;-90
2023/04/16 03:48:10;;;;;;;42.90;24.40;;;;;;;9.35;100.00;100410.03;218478;1287;107566;-89
2023/04/16 03:53:11;;;;;;;41.80;23.30;;;;;;;9.36;100.00;100416.31;217802;1288;139718;-90
2023/04/16 03:58:12;;;;;;;39.20;22.80;;;;;;;9.36;100.00;100419.53;218308;1290;138958;-89
2023/04/16 04:03:15;;;;;;;40.60;22.00;;;;;;;9.36;100.00;100429.42;218075;1289;139635;-89
2023/04/16 04:08:16;;;;;;;36.40;20.20;;;;;;;9.34;100.00;100433.07;218291;1289;139357;-90
2023/04/16 04:13:18;;;;;;;41.50;23.20;;;;;;;9.31;100.00;100436.94;217997;1289;141043;-90
2023/04/16 04:18:19;;;;;;;52.50;24.60;;;;;;;9.26;100.00;100441.73;218255;1289;255570;-89
2023/04/16 04:23:19;;;;;;;40.60;21.50;;;;;;;9.24;100.00;100440.21;217811;1289;139263;-90
2023/04/16 04:28:20;;;;;;;38.60;21.70;;;;;;;9.24;100.00;100446.73;218430;1289;139488;-91
2023/04/16 04:33:21;;;;;;;40.20;19.90;;;;;;;9.26;100.00;100457.29;217901;1289;139258;-91
2023/04/16 04:38:24;;;;;;;30.70;18.30;;;;;;;9.28;100.00;100455.44;218568;1289;137761;-91
2023/04/16 04:43:24;;;;;;;28.30;16.70;;;;;;;9.31;100.00;100459.53;218216;1289;140296;-91
2023/04/16 04:48:26;;;;;;;25.40;14.50;;;;;;;9.30;100.00;100462.20;218620;1288;96098;-91
2023/04/16 04:53:27;;;;;;;27.30;14.80;;;;;;;9.31;100.00;100464.02;217863;1289;139974;-91
2023/04/16 04:58:27;;;;;;;23.70;13.60;;;;;;;9.35;100.00;100470.14;218612;1290;137565;-92
2023/04/16 05:03:28;;;;;;;23.50;13.20;;;;;;;9.39;100.00;100471.86;218050;1287;139775;-91
2023/04/16 05:08:29;;;;;;;21.20;12.30;;;;;;;9.44;100.00;100479.79;218801;1288;139892;-91
2023/04/16 05:13:29;;;;;;;22.60;13.30;;;;;;;9.48;100.00;100480.24;217863;1289;139501;-91
2023/04/16 05:18:31;;;;;;;19.90;11.60;;;;;;;9.52;100.00;100485.23;218579;1289;96011;-91
2023/04/16 05:23:32;;;;;;;21.50;12.70;;;;;;;9.55;100.00;100488.50;217928;1291;138510;-91
2023/04/16 05:28:32;;;;;;;20.20;11.50;;;;;;;9.63;100.00;100492.17;218302;1288;139253;-90
2023/04/16 05:33:33;;;;;;;16.30;9.90;;;;;;;9.69;100.00;100493.52;218273;1287;140292;-91
2023/04/16 05:38:34;;;;;;;17.10;9.50;;;;;;;9.77;100.00;100500.95;218387;1289;139300;-91
2023/04/16 05:43:35;;;;;;;18.10;10.70;;;;;;;9.81;100.00;100502.52;217969;1288;139470;-91
2023/04/16 05:48:35;;;;;;;22.80;12.20;;;;;;;9.86;100.00;100506.27;218435;1289;139439;-91
2023/04/16 05:53:36;;;;;;;26.70;15.60;;;;;;;9.92;100.00;100509.03;218047;1289;139350;-90
2023/04/16 05:58:37;;;;;;;26.60;14.90;;;;;;;9.99;100.00;100514.73;218501;1289;139234;-91
2023/04/16 06:03:37;;;;;;;28.20;16.30;;;;;;;10.06;100.00;100513.36;218026;1289;139378;-92
2023/04/16 06:08:38;;;;;;;28.20;17.20;;;;;;;10.09;100.00;100516.30;218530;1288;139998;-92
2023/04/16 06:13:38;;;;;;;31.30;18.80;;;;;;;10.14;100.00;100525.73;217882;1289;139596;-91
2023/04/16 06:18:39;;;;;;;28.30;17.90;;;;;;;10.24;100.00;100532.55;218426;1288;139217;-90
2023/04/16 06:23:40;;;;;;;24.30;16.60;;;;;;;10.33;100.00;100532.98;217869;1289;139167;-91
2023/04/16 06:28:40;;;;;;;24.80;15.70;;;;;;;10.44;100.00;100538.65;218503;1288;139179;-92
2023/04/16 06:33:41;;;;;;;23.70;15.20;;;;;;;10.56;100.00;100545.16;217912;1288;139437;-91
2023/04/16 06:38:41;;;;;;;25.70;15.40;;;;;;;10.63;100.00;100547.14;218248;1289;139198;-92
2023/04/16 06:43:42;;;;;;;23.80;14.80;;;;;;;10.70;100.00;100557.38;217818;1288;139737;-92
2023/04/16 06:48:43;;;;;;;21.20;13.20;;;;;;;10.82;100.00;100557.61;218354;1288;139356;-91
2023/04/16 06:53:44;;;;;;;22.30;14.40;;;;;;;10.95;100.00;100557.13;217970;1288;139756;-91
2023/04/16 06:58:44;;;;;;;20.10;13.60;;;;;;;11.06;100.00;100563.55;218322;1288;139954;-90
2023/04/16 07:03:45;;;;;;;18.90;11.90;;;;;;;11.10;100.00;100564.00;217767;1288;139312;-91
2023/04/16 07:08:45;;;;;;;18.20;11.20;;;;;;;11.16;100.00;100568.14;218594;1288;139417;-91
2023/04/16 07:13:46;;;;;;;18.40;11.80;;;;;;;11.25;100.00;100574.61;217943;1288;139770;-92
2023/04/16 07:18:47;;;;;;;18.00;12.20;;;;;;;11.37;100.00;100577.51;218524;1288;139365;-92
2023/04/16 07:23:47;;;;;;;22.60;14.40;;;;;;;11.53;100.00;100580.81;218285;1288;139994;-92
2023/04/16 07:28:48;;;;;;;18.40;11.70;;;;;;;11.64;100.00;100582.59;218272;1288;139962;-91
2023/04/16 07:33:48;;;;;;;19.60;13.10;;;;;;;11.70;100.00;100584.70;217899;1288;141566;-90
2023/04/16 07:38:49;;;;;;;16.30;11.50;;;;;;;11.77;100.00;100589.96;218290;1290;138989;-90
2023/04/16 07:43:50;;;;;;;15.80;11.10;;;;;;;11.83;100.00;100593.56;218237;1288;139880;-92
2023/04/16 07:48:50;;;;;;;17.50;12.20;;;;;;;11.82;100.00;100600.57;217896;1289;139991;-91
2023/04/16 07:53:51;;;;;;;19.80;12.90;;;;;;;11.91;100.00;100598.44;218556;1288;96026;-92
2023/04/16 07:58:51;;;;;;;19.50;14.00;;;;;;;11.90;100.00;100602.36;217735;1288;139544;-91
2023/04/16 08:04:10;;;;;;;20.60;14.30;;;;;;;11.89;100.00;100606.70;218749;1288;139024;-92
2023/04/16 08:09:11;;;;;;;24.70;16.20;;;;;;;12.07;100.00;100611.81;217858;1288;140058;-88
2023/04/16 08:14:11;;;;;;;28.00;18.00;;;;;;;12.05;100.00;100614.87;218571;1288;139186;-90
2023/04/16 08:19:12;;;;;;;26.40;18.10;;;;;;;12.02;100.00;100620.84;217805;1288;141114;-89
2023/04/16 08:24:12;;;;;;;25.50;18.10;;;;;;;12.07;100.00;100621.27;218449;1288;95961;-88
2023/04/16 08:29:13;;;;;;;30.40;22.80;;;;;;;12.05;100.00;100623.21;217847;1289;139719;-91
2023/04/16 08:34:13;;;;;;;28.10;20.00;;;;;;;12.04;100.00;100629.70;218569;1287;139256;-91
2023/04/16 08:39:14;;;;;;;27.20;19.10;;;;;;;12.06;100.00;100634.27;217754;1288;141792;-89
2023/04/16 08:44:26;;;;;;;28.50;19.00;;;;;;;12.16;100.00;100639.63;218224;1288;141648;-90
2023/04/16 08:49:27;;;;;;;26.30;17.20;;;;;;;12.31;100.00;100641.33;217699;1288;140200;-90
2023/04/16 08:54:42;;;;;;;25.30;16.90;;;;;;;12.47;100.00;100644.05;218522;1289;96127;-90
2023/04/16 08:59:45;;;;;;;25.10;16.00;;;;;;;12.54;100.00;100642.04;217967;1289;139114;-89
2023/04/16 09:04:48;;;;;;;27.60;18.40;;;;;;;12.57;100.00;100650.89;218397;1287;139041;-88
2023/04/16 09:09:52;;;;;;;22.80;16.40;;;;;;;12.64;100.00;100651.24;217777;1288;140853;-88
2023/04/16 09:14:52;;;;;;;24.30;16.60;;;;;;;12.77;100.00;100657.09;218779;1288;139188;-88
2023/04/16 09:19:53;;;;;;;23.80;16.40;;;;;;;12.84;100.00;100662.89;217802;1288;139540;-88
2023/04/16 09:24:54;;;;;;;22.60;16.30;;;;;;;13.02;100.00;100660.88;218291;1288;139243;-87
2023/04/16 09:29:54;;;;;;;21.70;15.40;;;;;;;13.24;100.00;100666.59;218111;1288;140853;-88
2023/04/16 09:35:01;;;;;;;18.30;12.10;;;;;;;13.42;100.00;100673.52;218330;1288;139679;-86
2023/04/16 09:40:03;;;;;;;19.40;13.40;;;;;;;13.52;100.00;100677.90;217947;1287;139394;-87
2023/04/16 09:45:04;;;;;;;19.00;12.80;;;;;;;13.60;100.00;100674.68;218364;1288;139186;-87
2023/04/16 09:50:05;;;;;;;18.90;12.70;;;;;;;13.80;100.00;100676.08;218061;1288;139259;-87
2023/04/16 09:55:06;;;;;;;19.60;13.40;;;;;;;13.99;100.00;100678.88;218533;1288;139262;-87
2023/04/16 10:00:08;;;;;;;14.60;8.20;;;;;;;14.25;100.00;100676.77;218075;1288;141635;-87
2023/04/16 10:05:15;;;;;;;13.70;7.90;;;;;;;14.48;100.00;100681.20;218440;1288;139248;-88
2023/04/16 10:10:16;;;;;;;14.10;8.40;;;;;;;14.69;100.00;100683.25;217780;1288;139637;-88
2023/04/16 10:15:16;;;;;;;12.50;7.40;;;;;;;14.94;100.00;100680.51;218537;1288;140569;-86
2023/04/16 10:20:17;;;;;;;10.50;6.20;;;;;;;15.37;100.00;100684.89;217841;1288;140560;-87
2023/04/16 10:25:18;;;;;;;10.30;5.50;;;;;;;15.70;100.00;100688.21;218425;1288;139876;-87
2023/04/16 10:30:20;;;;;;;11.30;7.30;;;;;;;15.82;100.00;100693.38;217963;1288;209918;-87
2023/04/16 10:35:20;;;;;;;14.40;8.90;;;;;;;15.97;100.00;100697.73;218433;1288;140852;-86
2023/04/16 10:40:26;;;;;;;12.40;8.30;;;;;;;16.02;100.00;100700.95;217998;1288;139753;-89
2023/04/16 10:45:31;;;;;;;11.80;7.30;;;;;;;15.86;100.00;100707.08;218402;1288;138997;-88
2023/04/16 10:50:35;;;;;;;10.80;6.70;;;;;;;15.89;100.00;100713.57;217710;1287;139780;-88
2023/04/16 10:55:39;;;;;;;10.50;6.90;;;;;;;15.68;99.78;100714.48;218194;1287;139250;-87
2023/04/16 11:00:52;;;;;;;11.10;6.20;;;;;;;15.55;100.00;100712.40;217753;1288;140170;-88
2023/04/16 11:05:53;;;;;;;12.40;7.60;;;;;;;15.47;99.75;100712.75;218533;1288;96023;-88
2023/04/16 11:10:57;;;;;;;14.00;8.60;;;;;;;15.28;99.28;100714.70;217725;1288;139681;-88
2023/04/16 11:15:57;;;;;;;10.30;6.30;;;;;;;15.23;100.00;100720.73;218181;1289;138918;-88
2023/04/16 11:20:58;;;;;;;12.60;8.30;;;;;;;15.31;100.00;100728.33;217846;1289;139360;-88
2023/04/16 11:25:59;;;;;;;13.00;7.80;;;;;;;15.35;99.76;100731.63;218298;1289;139846;-86
2023/04/16 11:31:09;;;;;;;13.80;8.80;;;;;;;15.27;99.83;100730.30;217731;1288;139197;-89
2023/04/16 11:36:10;;;;;;;12.50;8.70;;;;;;;15.31;99.41;100733.55;218426;1288;96751;-88
2023/04/16 11:41:10;;;;;;;13.60;8.10;;;;;;;15.25;98.78;100741.32;217775;1288;139302;-88
2023/04/16 11:46:10;;;;;;;10.50;6.50;;;;;;;15.09;98.22;100742.32;218383;1288;139210;-89
2023/04/16 11:51:11;;;;;;;11.60;6.70;;;;;;;15.08;99.79;100745.17;217856;1289;139522;-87
2023/04/16 11:56:11;;;;;;;12.30;8.20;;;;;;;15.21;99.48;100743.95;218288;1287;138988;-88
2023/04/16 12:01:19;;;;;;;11.70;7.70;;;;;;;15.12;98.26;100750.63;218100;1288;139397;-90
2023/04/16 12:06:20;;;;;;;12.30;8.30;;;;;;;14.71;97.79;100754.48;218608;1288;96030;-88
2023/04/16 12:11:20;;;;;;;14.70;9.40;;;;;;;14.43;98.80;100755.84;218062;1287;138817;-88
2023/04/16 12:16:24;;;;;;;15.40;10.30;;;;;;;14.31;99.61;100754.55;218411;1288;138841;-87
2023/04/16 12:21:24;;;;;;;15.80;10.50;;;;;;;14.10;100.00;100757.02;218075;1288;139572;-88
2023/04/16 12:26:24;;;;;;;17.20;10.80;;;;;;;14.04;100.00;100757.55;218448;1288;139220;-87
2023/04/16 12:31:37;;;;;;;18.10;11.70;;;;;;;14.06;100.00;100750.45;218001;1288;140132;-87
2023/04/16 12:36:37;;;;;;;16.00;9.80;;;;;;;14.07;100.00;100750.20;218499;1289;139209;-87
2023/04/16 12:41:40;;;;;;;16.30;10.70;;;;;;;14.18;100.00;100748.35;218123;1288;139592;-88
2023/04/16 12:46:41;;;;;;;14.60;10.50;;;;;;;14.24;100.00;100742.99;218498;1288;139792;-89
2023/04/16 12:51:41;;;;;;;14.30;9.40;;;;;;;14.28;100.00;100748.63;217950;1288;139429;-88
2023/04/16 12:56:42;;;;;;;12.70;8.30;;;;;;;14.42;100.00;100751.96;218484;1288;139365;-90
2023/04/16 13:01:42;;;;;;;12.10;7.70;;;;;;;14.46;100.00;100754.02;217966;1288;140315;-89
2023/04/16 13:06:43;;;;;;;12.80;8.50;;;;;;;14.44;99.21;100759.55;218316;1288;140008;-89
2023/04/16 13:11:43;;;;;;;12.60;8.60;;;;;;;14.37;99.29;100760.58;218176;1288;139086;-89
2023/04/16 13:16:44;;;;;;;11.70;7.30;;;;;;;14.49;99.66;100762.48;218379;1288;138964;-90
2023/04/16 13:21:44;;;;;;;12.10;7.60;;;;;;;14.63;99.88;100765.17;218078;1287;139404;-90
2023/04/16 13:26:45;;;;;;;11.80;7.30;;;;;;;14.67;99.79;100767.95;218614;1287;138941;-92
2023/04/16 13:31:46;;;;;;;10.80;6.70;;;;;;;14.79;99.35;100760.73;217813;1288;142591;-91
2023/04/16 13:36:46;;;;;;;9.00;5.60;;;;;;;14.94;99.87;100763.73;218294;1287;139000;-92
2023/04/16 13:41:47;;;;;;;9.40;5.80;;;;;;;15.20;99.54;100764.07;218196;1287;138884;-90
2023/04/16 13:46:51;;;;;;;8.80;5.40;;;;;;;15.29;97.92;100767.23;218550;1288;139162;-89
2023/04/16 13:51:51;;;;;;;9.20;5.60;;;;;;;15.23;96.51;100766.92;218198;1287;139033;-90
2023/04/16 13:56:51;;;;;;;10.10;6.60;;;;;;;15.22;97.39;100769.14;218564;1288;139868;-86
2023/04/16 14:01:52;;;;;;;11.40;7.20;;;;;;;15.36;97.80;100769.92;217890;1288;140003;-87
2023/04/16 14:06:52;;;;;;;13.40;8.30;;;;;;;15.44;96.56;100771.58;218417;1288;138970;-86
2023/04/16 14:11:54;;;;;;;16.40;10.80;;;;;;;15.26;94.67;100767.63;217978;1288;139274;-86
2023/04/16 14:16:54;;;;;;;12.70;8.20;;;;;;;15.01;94.25;100774.34;218546;1288;139165;-86
2023/04/16 14:21:55;;;;;;;13.80;9.10;;;;;;;14.85;94.08;100776.80;217807;1288;139183;-86
2023/04/16 14:26:55;;;;;;;13.50;9.30;;;;;;;14.62;93.16;100775.62;218513;1288;139092;-86
2023/04/16 14:31:55;;;;;;;14.10;9.50;;;;;;;14.46;94.16;100777.51;218056;1288;139385;-87
2023/04/16 14:36:56;;;;;;;14.20;9.00;;;;;;;14.48;95.31;100775.69;218599;1287;139078;-86
2023/04/16 14:41:56;;;;;;;18.90;11.00;;;;;;;14.48;93.90;100776.09;218034;1288;139042;-87
2023/04/16 14:46:57;;;;;;;13.10;8.10;;;;;;;14.39;94.85;100781.46;218774;1287;141222;-86
2023/04/16 14:51:58;;;;;;;13.70;9.30;;;;;;;14.45;95.85;100783.45;218122;1288;139045;-86
2023/04/16 14:56:58;;;;;;;14.80;9.70;;;;;;;14.52;95.88;100784.16;218603;1288;139173;-86
2023/04/16 15:02:00;;;;;;;15.80;11.50;;;;;;;14.46;96.01;100788.27;217844;1290;140284;-86
2023/04/16 15:07:01;;;;;;;23.20;16.00;;;;;;;14.48;96.50;100788.13;218423;1287;139116;-86
2023/04/16 15:12:01;;;;;;;24.10;16.70;;;;;;;14.41;96.56;100796.34;218147;1288;139410;-85
2023/04/16 15:17:02;;;;;;;25.00;16.10;;;;;;;14.17;96.43;100794.77;218560;1287;138986;-86
2023/04/16 15:22:02;;;;;;;28.30;17.90;;;;;;;13.90;96.97;100803.45;217830;1288;139403;-86
2023/04/16 15:27:04;;;;;;;30.80;18.50;;;;;;;13.74;97.54;100807.51;218400;1288;138970;-86
2023/04/16 15:32:05;;;;;;;31.10;19.60;;;;;;;13.52;97.93;100808.89;218069;1288;139868;-85
2023/04/16 15:37:06;;;;;;;36.10;23.20;;;;;;;13.37;98.63;100810.39;218507;1288;139180;-86
2023/04/16 15:42:07;;;;;;;31.80;20.30;;;;;;;13.18;99.31;100814.63;218046;1288;139762;-86
2023/04/16 15:47:07;;;;;;;34.60;21.30;;;;;;;12.94;99.98;100822.02;218489;1287;139222;-86
2023/04/16 15:52:10;;;;;;;38.60;24.40;;;;;;;12.72;100.00;100824.81;217841;1288;139309;-86
2023/04/16 15:57:11;;;;;;;40.60;25.40;;;;;;;12.54;100.00;100831.83;218601;1288;139553;-87
2023/04/16 16:02:11;;;;;;;37.60;21.30;;;;;;;12.36;100.00;100833.22;218048;1288;140054;-87
2023/04/16 16:07:14;;;;;;;42.80;25.10;;;;;;;12.24;100.00;100836.73;218375;1288;139891;-88
2023/04/16 16:12:14;;;;;;;40.10;23.50;;;;;;;12.12;100.00;100835.33;218183;1288;138782;-86
2023/04/16 16:17:15;;;;;;;40.70;24.90;;;;;;;12.01;100.00;100842.60;218394;1288;255958;-87
2023/04/16 16:22:19;;;;;;;35.10;21.20;;;;;;;11.81;100.00;100846.29;218034;1288;140110;-87
2023/04/16 16:27:20;;;;;;;40.90;23.30;;;;;;;11.71;100.00;100850.27;218291;1288;139240;-87
2023/04/16 16:32:20;;;;;;;38.90;22.70;;;;;;;11.63;100.00;100849.69;217990;1288;139702;-88
2023/04/16 16:37:21;;;;;;;39.80;22.80;;;;;;;11.54;100.00;100852.54;218866;1288;139730;-86
2023/04/16 16:42:21;;;;;;;36.90;21.20;;;;;;;11.47;100.00;100860.78;218102;1288;139572;-87
2023/04/16 16:47:23;;;;;;;42.20;23.50;;;;;;;11.35;100.00;100863.91;218537;1288;140679;-87
2023/04/16 16:52:24;;;;;;;42.60;23.70;;;;;;;11.23;100.00;100868.92;218062;1288;139487;-88
2023/04/16 16:57:25;;;;;;;44.60;24.90;;;;;;;11.13;100.00;100867.36;218396;1288;139901;-87
2023/04/16 17:02:26;;;;;;;42.00;24.30;;;;;;;11.08;100.00;100872.70;217831;1288;140455;-88
2023/04/16 17:07:26;;;;;;;44.50;25.40;;;;;;;11.02;100.00;100876.92;218512;1288;139298;-88
2023/04/16 17:12:28;;;;;;;42.10;22.10;;;;;;;10.98;100.00;100883.01;218081;1288;140370;-87
2023/04/16 17:17:29;;;;;;;45.60;24.50;;;;;;;10.94;100.00;100884.11;218404;1288;139765;-89
2023/04/16 17:22:30;;;;;;;43.50;23.60;;;;;;;10.85;100.00;100886.33;218101;1287;140865;-88
2023/04/16 17:27:33;;;;;;;40.80;23.40;;;;;;;10.79;100.00;100892.20;218368;1288;139893;-90
2023/04/16 17:32:34;;;;;;;56.00;30.20;;;;;;;10.74;100.00;100896.81;218005;1290;139629;-90
2023/04/16 17:37:35;;;;;;;46.40;25.50;;;;;;;10.63;100.00;100898.20;218296;1288;139190;-88
2023/04/16 17:42:35;;;;;;;49.10;26.50;;;;;;;10.48;100.00;100900.75;218113;1288;139310;-89
2023/04/16 17:47:36;;;;;;;46.30;25.10;;;;;;;10.42;100.00;100905.59;218633;1287;140358;-89
2023/04/16 17:52:37;;;;;;;48.20;24.50;;;;;;;10.33;100.00;100912.72;217910;1288;139250;-89
2023/04/16 17:57:38;;;;;;;44.70;24.40;;;;;;;10.31;100.00;100923.22;218564;1288;139759;-89
2023/04/16 18:02:42;;;;;;;49.30;25.80;;;;;;;10.27;100.00;100928.16;217994;1288;139648;-89
2023/04/16 18:07:43;;;;;;;45.50;24.30;;;;;;;10.20;100.00;100933.36;218522;1288;140000;-89
2023/04/16 18:12:43;;;;;;;49.60;24.00;;;;;;;10.17;100.00;100943.59;218033;1287;139552;-88
2023/04/16 18:17:43;;;;;;;47.20;25.50;;;;;;;10.14;100.00;100951.63;218449;1288;96619;-89
2023/04/16 18:22:44;;;;;;;49.20;24.00;;;;;;;10.09;100.00;100958.52;217965;1288;139533;-89
2023/04/16 18:27:46;;;;;;;51.00;25.80;;;;;;;10.07;100.00;100958.95;218705;1288;139748;-89
2023/04/16 18:32:46;;;;;;;45.40;24.90;;;;;;;10.08;100.00;100966.91;218017;1288;139820;-89
2023/04/16 18:37:46;;;;;;;42.20;24.00;;;;;;;10.07;100.00;100974.09;218463;1289;139292;-88
2023/04/16 18:42:47;;;;;;;45.20;24.90;;;;;;;10.05;100.00;100982.48;217969;1288;139782;-90
2023/04/16 18:47:49;;;;;;;40.40;23.50;;;;;;;10.04;100.00;100991.61;218633;1289;95995;-88
2023/04/16 18:52:49;;;;;;;49.40;24.40;;;;;;;10.02;100.00;100995.18;217914;1291;139768;-88
2023/04/16 18:57:50;;;;;;;45.00;23.30;;;;;;;10.01;100.00;100994.20;218505;1288;140528;-88
2023/04/16 19:02:50;;;;;;;53.40;28.30;;;;;;;10.00;100.00;100994.27;217979;1291;139538;-89
2023/04/16 19:07:51;;;;;;;53.00;25.80;;;;;;;10.00;100.00;100999.75;218589;1288;140169;-88
2023/04/16 19:12:51;;;;;;;52.80;25.00;;;;;;;9.96;100.00;100999.84;218049;1288;139542;-88
2023/04/16 19:17:52;;;;;;;60.40;32.20;;;;;;;9.93;100.00;101004.73;218859;1289;96189;-91
2023/04/16 19:22:52;;;;;;;59.60;27.30;;;;;;;9.90;100.00;101006.62;218047;1287;140245;-89
2023/04/16 19:27:54;;;;;;;48.00;22.90;;;;;;;9.89;100.00;101011.62;218581;1288;139242;-90
2023/04/16 19:32:55;;;;;;;52.30;24.50;;;;;;;9.88;100.00;101012.99;218048;1288;139267;-89
2023/04/16 19:37:55;;;;;;;57.80;26.30;;;;;;;9.85;100.00;101013.16;218396;1288;138820;-90
2023/04/16 19:42:56;;;;;;;57.30;24.00;;;;;;;9.82;100.00;101020.26;217954;1288;139997;-90
2023/04/16 19:47:56;;;;;;;57.10;24.10;;;;;;;9.80;100.00;101023.56;218507;1288;96296;-90
2023/04/16 19:52:57;;;;;;;49.20;22.60;;;;;;;9.80;100.00;101019.90;218027;1288;139169;-89
2023/04/16 19:58:04;;;;;;;66.60;30.60;;;;;;;9.81;100.00;101018.59;218535;1289;138964;-90
2023/04/16 20:03:05;;;;;;;74.60;30.60;;;;;;;9.81;100.00;101020.15;217863;1287;139225;-89
2023/04/16 20:08:05;;;;;;;57.10;23.90;;;;;;;9.77;100.00;101024.62;218509;1291;138881;-89
2023/04/16 20:13:08;;;;;;;42.30;21.30;;;;;;;9.71;100.00;101026.73;218246;1289;140074;-89
2023/04/16 20:18:09;;;;;;;46.10;22.30;;;;;;;9.69;100.00;101017.83;218706;1288;96428;-89
2023/04/16 20:23:10;;;;;;;40.50;19.90;;;;;;;9.68;100.00;101016.46;217956;1289;139480;-89
2023/04/16 20:28:11;;;;;;;49.30;23.20;;;;;;;9.63;100.00;101011.54;218501;1288;139319;-90
2023/04/16 20:33:11;;;;;;;84.90;30.90;;;;;;;9.61;100.00;101013.05;217728;1289;139074;-88
2023/04/16 20:38:12;;;;;;;58.40;24.10;;;;;;;9.57;100.00;101013.98;218587;1288;139020;-89
2023/04/16 20:43:12;;;;;;;43.70;19.50;;;;;;;9.52;100.00;101017.48;217952;1288;138971;-89
2023/04/16 20:48:13;;;;;;;54.00;24.20;;;;;;;9.48;100.00;101022.09;218569;1288;96130;-89
2023/04/16 20:53:13;;;;;;;45.90;20.70;;;;;;;9.49;100.00;101027.84;217976;1289;139139;-90
2023/04/16 20:58:14;;;;;;;80.50;33.00;;;;;;;9.47;100.00;101027.96;218537;1288;138759;-91
2023/04/16 21:03:14;;;;;;;87.90;31.80;;;;;;;9.45;100.00;101031.59;217987;1289;139594;-90
2023/04/16 21:08:16;;;;;;;59.70;25.50;;;;;;;9.43;100.00;101034.14;218850;1289;138907;-90
2023/04/16 21:13:17;;;;;;;48.90;22.40;;;;;;;9.41;100.00;101039.98;217784;1288;138970;-91
2023/04/16 21:18:17;;;;;;;40.80;20.20;;;;;;;9.35;100.00;101040.36;218517;1289;97051;-91
2023/04/16 21:23:18;;;;;;;48.20;23.20;;;;;;;9.31;100.00;101037.36;217763;1289;139602;-90
2023/04/16 21:28:18;;;;;;;60.70;27.10;;;;;;;9.27;100.00;101038.68;218387;1291;139039;-90
2023/04/16 21:33:19;;;;;;;56.50;25.50;;;;;;;9.25;100.00;101036.27;218032;1291;139124;-90
2023/04/16 21:38:20;;;;;;;38.80;20.60;;;;;;;9.23;100.00;101037.16;218459;1291;138874;-89
2023/04/16 21:43:22;;;;;;;37.30;19.10;;;;;;;9.19;100.00;101039.09;218040;1289;139788;-89
2023/04/16 21:48:22;;;;;;;64.20;28.30;;;;;;;9.16;100.00;101040.48;218650;1291;96291;-91
2023/04/16 21:53:24;;;;;;;39.10;21.90;;;;;;;9.14;100.00;101043.42;217999;1289;138673;-89
2023/04/16 21:58:24;;;;;;;42.10;21.00;;;;;;;9.12;100.00;101046.99;218486;1288;139659;-90
2023/04/16 22:03:26;;;;;;;45.00;22.10;;;;;;;9.12;100.00;101051.45;218385;1288;139420;-89
2023/04/16 22:08:29;;;;;;;66.50;27.10;;;;;;;9.10;100.00;101047.70;218389;1294;139051;-88
2023/04/16 22:13:31;;;;;;;63.80;28.80;;;;;;;9.09;100.00;101051.13;218062;1288;139139;-94